Time;durP1;ratioP1;P1;durP2;ratioP2;P2;SDS_P1;SDS_P2;PMS_P1;PMS_P2;Temp;Humidity;BMP_temperature;BMP_pressure;BME280_temperature;BME280_humidity;BME280_pressure;Samples;Min_cycle;Max_cycle;Signal;HPM_P1;HPM_P2
2022/11/14 00:01:12;;;;;;;74.05;25.73;;;;;;;;;;4937727;29;20051;-73
2022/11/14 00:03:56;;;;;;;60.83;24.23;;;;;;;;;;4938340;29;20055;-73
2022/11/14 00:06:41;;;;;;;68.10;26.30;;;;;;;;;;4946852;28;20143;-73
2022/11/14 00:09:26;;;;;;;45.45;24.35;;;;;;;;;;4943158;29;20051;-73
2022/11/14 00:12:11;;;;;;;42.05;23.27;;;;;;;;;;4936412;29;20072;-73
2022/11/14 00:14:56;;;;;;;56.67;25.17;;;;;;;;;;4922072;29;20445;-73
2022/11/14 00:17:40;;;;;;;72.18;24.55;;;;;;;;;;4945457;29;20047;-74
2022/11/14 00:20:25;;;;;;;59.95;23.75;;;;;;;;;;4936859;29;20095;-73
2022/11/14 00:23:09;;;;;;;41.55;24.23;;;;;;;;;;4936708;29;20581;-73
2022/11/14 00:25:54;;;;;;;56.47;25.83;;;;;;;;;;4936428;29;20055;-73
2022/11/14 00:28:38;;;;;;;61.55;26.65;;;;;;;;;;4936459;29;20058;-73
2022/11/14 00:31:23;;;;;;;66.65;27.05;;;;;;;;;;4939508;29;20042;-73
2022/11/14 00:34:08;;;;;;;46.97;28.08;;;;;;;;;;4941381;29;20123;-74
2022/11/14 00:36:52;;;;;;;44.38;26.60;;;;;;;;;;4930014;29;20062;-74
2022/11/14 00:39:37;;;;;;;65.05;22.65;;;;;;;;;;4935833;29;20619;-74
2022/11/14 00:42:21;;;;;;;44.00;25.48;;;;;;;;;;4936675;29;20050;-74
2022/11/14 00:45:06;;;;;;;55.72;24.50;;;;;;;;;;4936554;29;20099;-73
2022/11/14 00:47:50;;;;;;;61.45;25.15;;;;;;;;;;4950497;29;20416;-74
2022/11/14 00:50:34;;;;;;;53.35;23.92;;;;;;;;;;4933116;29;20050;-73
2022/11/14 00:53:19;;;;;;;46.38;25.35;;;;;;;;;;4944503;29;20058;-73
2022/11/14 00:56:05;;;;;;;50.30;25.48;;;;;;;;;;4954904;29;20086;-73
2022/11/14 00:58:51;;;;;;;31.83;22.77;;;;;;;;;;4942562;29;20417;-73
2022/11/14 01:01:35;;;;;;;42.28;22.88;;;;;;;;;;4939291;29;20045;-73
2022/11/14 01:04:20;;;;;;;33.28;23.17;;;;;;;;;;4937521;29;20508;-73
2022/11/14 01:07:04;;;;;;;33.13;22.25;;;;;;;;;;4946424;28;20472;-73
2022/11/14 01:09:49;;;;;;;34.30;23.23;;;;;;;;;;4953802;29;20113;-72
2022/11/14 01:12:34;;;;;;;36.95;22.88;;;;;;;;;;4954186;28;20054;-72
2022/11/14 01:15:18;;;;;;;44.42;22.85;;;;;;;;;;4952463;29;20054;-72
2022/11/14 01:18:03;;;;;;;38.75;24.67;;;;;;;;;;4955155;29;20046;-72
2022/11/14 01:20:48;;;;;;;40.13;24.60;;;;;;;;;;4954252;29;20548;-72
2022/11/14 01:23:33;;;;;;;37.13;23.77;;;;;;;;;;4954630;29;20629;-72
2022/11/14 01:26:18;;;;;;;38.28;24.10;;;;;;;;;;4953836;29;20189;-72
2022/11/14 01:29:03;;;;;;;35.65;23.58;;;;;;;;;;4953781;28;20054;-72
2022/11/14 01:31:47;;;;;;;42.40;23.52;;;;;;;;;;4953181;28;20397;-72
2022/11/14 01:34:32;;;;;;;46.78;24.88;;;;;;;;;;4950809;29;20142;-73
2022/11/14 01:37:16;;;;;;;51.22;24.38;;;;;;;;;;4952956;29;20559;-73
2022/11/14 01:40:00;;;;;;;43.42;24.83;;;;;;;;;;4933962;29;20103;-73
2022/11/14 01:43:10;;;;;;;39.50;24.60;;;;;;;;;;4936554;29;20134;-72
2022/11/14 01:46:17;;;;;;;38.20;24.27;;;;;;;;;;4953396;29;20575;-73
2022/11/14 01:49:17;;;;;;;40.30;24.42;;;;;;;;;;4945886;29;20511;-73
2022/11/14 01:52:27;;;;;;;41.50;26.00;;;;;;;;;;4936410;29;20515;-72
2022/11/14 01:55:12;;;;;;;37.55;24.23;;;;;;;;;;4954301;29;20093;-72
2022/11/14 01:57:58;;;;;;;41.50;24.33;;;;;;;;;;4937108;29;20059;-72
2022/11/14 02:00:43;;;;;;;43.22;24.10;;;;;;;;;;4952943;29;20102;-72
2022/11/14 02:03:28;;;;;;;38.63;24.02;;;;;;;;;;4941643;29;20160;-73
2022/11/14 02:06:16;;;;;;;45.45;24.42;;;;;;;;;;4954561;29;20152;-73
2022/11/14 02:09:04;;;;;;;41.25;24.95;;;;;;;;;;4953552;29;20143;-73
2022/11/14 02:11:51;;;;;;;45.38;26.17;;;;;;;;;;4939287;29;20093;-73
2022/11/14 02:14:37;;;;;;;44.88;24.70;;;;;;;;;;4953617;29;20054;-73
2022/11/14 02:17:23;;;;;;;44.97;26.67;;;;;;;;;;4953736;29;20511;-73
2022/11/14 02:20:10;;;;;;;56.22;28.45;;;;;;;;;;4953528;29;20050;-73
2022/11/14 02:22:55;;;;;;;46.67;27.02;;;;;;;;;;4953620;29;20468;-73
2022/11/14 02:25:40;;;;;;;45.05;27.33;;;;;;;;;;4953815;29;20073;-73
2022/11/14 02:28:26;;;;;;;56.03;27.00;;;;;;;;;;4953727;29;20077;-72
2022/11/14 02:31:11;;;;;;;43.78;25.75;;;;;;;;;;4952095;29;20102;-73
2022/11/14 02:33:55;;;;;;;45.55;25.80;;;;;;;;;;4919921;29;20142;-73
2022/11/14 02:36:40;;;;;;;52.47;26.80;;;;;;;;;;4934239;29;20102;-74
2022/11/14 02:39:24;;;;;;;45.17;26.33;;;;;;;;;;4927562;29;20134;-72
2022/11/14 02:42:09;;;;;;;55.10;27.70;;;;;;;;;;4934708;29;20058;-72
2022/11/14 02:44:53;;;;;;;48.90;27.67;;;;;;;;;;4934492;29;20089;-72
2022/11/14 02:47:38;;;;;;;54.67;28.15;;;;;;;;;;4934563;29;20050;-71
2022/11/14 02:50:22;;;;;;;56.15;27.50;;;;;;;;;;4938646;29;20137;-72
2022/11/14 02:53:07;;;;;;;59.63;28.55;;;;;;;;;;4938364;29;20171;-73
2022/11/14 02:55:51;;;;;;;48.55;27.65;;;;;;;;;;4934446;29;20070;-71
2022/11/14 02:58:36;;;;;;;52.28;29.55;;;;;;;;;;4938856;29;20125;-74
2022/11/14 03:01:20;;;;;;;57.95;28.33;;;;;;;;;;4953350;29;20066;-74
2022/11/14 03:04:05;;;;;;;50.05;28.15;;;;;;;;;;4941358;28;20126;-71
2022/11/14 03:06:49;;;;;;;60.35;30.77;;;;;;;;;;4948513;28;20070;-71
2022/11/14 03:09:34;;;;;;;66.40;31.85;;;;;;;;;;4956514;29;20054;-71
2022/11/14 03:12:19;;;;;;;77.63;31.73;;;;;;;;;;4957083;29;20417;-72
2022/11/14 03:15:05;;;;;;;74.03;30.75;;;;;;;;;;4956720;29;20054;-71
2022/11/14 03:17:50;;;;;;;60.38;30.63;;;;;;;;;;4956820;29;20527;-72
2022/11/14 03:20:34;;;;;;;63.33;30.25;;;;;;;;;;4956636;29;20074;-73
2022/11/14 03:23:19;;;;;;;66.95;30.27;;;;;;;;;;4956533;29;20054;-72
2022/11/14 03:26:06;;;;;;;61.28;28.75;;;;;;;;;;4956440;29;20429;-72
2022/11/14 03:28:50;;;;;;;65.80;30.48;;;;;;;;;;4956710;29;20404;-72
2022/11/14 03:31:35;;;;;;;92.82;29.38;;;;;;;;;;4956384;29;20042;-72
2022/11/14 03:34:19;;;;;;;67.88;31.85;;;;;;;;;;4956442;29;20057;-72
2022/11/14 03:37:04;;;;;;;68.72;29.67;;;;;;;;;;4956404;29;20130;-72
2022/11/14 03:39:48;;;;;;;59.03;30.10;;;;;;;;;;4956271;29;20050;-72
2022/11/14 03:42:34;;;;;;;60.75;28.85;;;;;;;;;;4956812;29;20134;-73
2022/11/14 03:45:19;;;;;;;54.17;30.05;;;;;;;;;;4956375;29;20575;-72
2022/11/14 03:48:05;;;;;;;57.42;29.45;;;;;;;;;;4972828;28;20057;-72
2022/11/14 03:50:49;;;;;;;59.20;27.92;;;;;;;;;;4956441;29;20089;-73
2022/11/14 03:53:33;;;;;;;67.75;31.05;;;;;;;;;;4956172;29;20167;-72
2022/11/14 03:56:18;;;;;;;62.88;31.08;;;;;;;;;;4956157;29;20548;-72
2022/11/14 03:59:02;;;;;;;62.78;29.73;;;;;;;;;;4956008;29;20050;-72
2022/11/14 04:01:48;;;;;;;63.10;30.75;;;;;;;;;;4962047;28;20077;-72
2022/11/14 04:04:32;;;;;;;57.15;28.83;;;;;;;;;;4966912;28;20086;-71
2022/11/14 04:07:17;;;;;;;77.32;33.38;;;;;;;;;;4955585;29;20230;-71
2022/11/14 04:10:02;;;;;;;67.78;30.90;;;;;;;;;;4955420;29;20050;-71
2022/11/14 04:12:51;;;;;;;76.25;32.65;;;;;;;;;;4954999;29;20050;-71
2022/11/14 04:15:36;;;;;;;81.20;34.78;;;;;;;;;;4938433;28;20054;-74
2022/11/14 04:18:20;;;;;;;77.57;31.95;;;;;;;;;;4937676;29;20106;-72
2022/11/14 04:21:05;;;;;;;82.57;34.10;;;;;;;;;;4957133;29;20066;-71
2022/11/14 04:23:49;;;;;;;129.85;36.45;;;;;;;;;;4955289;29;20054;-72
2022/11/14 04:26:33;;;;;;;118.20;37.17;;;;;;;;;;4938448;29;20055;-72
2022/11/14 04:29:17;;;;;;;109.65;39.28;;;;;;;;;;4926961;29;20054;-71
2022/11/14 04:32:02;;;;;;;114.95;39.53;;;;;;;;;;4955335;29;20057;-72
2022/11/14 04:34:46;;;;;;;104.18;36.75;;;;;;;;;;4946848;29;20565;-72
2022/11/14 04:37:31;;;;;;;196.20;38.67;;;;;;;;;;4935983;29;20051;-72
2022/11/14 04:40:15;;;;;;;152.95;39.10;;;;;;;;;;4947915;29;20054;-72
2022/11/14 04:42:59;;;;;;;162.38;39.95;;;;;;;;;;4955595;29;20523;-72
2022/11/14 04:45:44;;;;;;;162.77;39.50;;;;;;;;;;4939918;29;20177;-73
2022/11/14 04:48:29;;;;;;;125.72;38.35;;;;;;;;;;4916463;29;20059;-73
2022/11/14 04:51:14;;;;;;;112.65;36.40;;;;;;;;;;4954692;29;20070;-73
2022/11/14 04:53:58;;;;;;;92.50;32.13;;;;;;;;;;4939061;29;20054;-73
2022/11/14 04:56:42;;;;;;;97.50;33.72;;;;;;;;;;4935925;29;20107;-73
2022/11/14 04:59:27;;;;;;;99.03;33.70;;;;;;;;;;4940167;29;20094;-74
2022/11/14 05:02:11;;;;;;;111.13;35.42;;;;;;;;;;4930781;29;20051;-74
2022/11/14 05:04:56;;;;;;;104.93;32.20;;;;;;;;;;4936566;29;20053;-74
2022/11/14 05:07:40;;;;;;;112.85;33.33;;;;;;;;;;4949450;28;20133;-72
2022/11/14 05:10:25;;;;;;;94.68;31.42;;;;;;;;;;4943003;29;20059;-73
2022/11/14 05:13:11;;;;;;;134.23;36.65;;;;;;;;;;4921009;29;20071;-73
2022/11/14 05:16:00;;;;;;;134.38;34.58;;;;;;;;;;4935557;29;20053;-72
2022/11/14 05:18:44;;;;;;;107.75;33.33;;;;;;;;;;4914358;29;20112;-72
2022/11/14 05:21:29;;;;;;;84.15;31.27;;;;;;;;;;4915493;29;20071;-72
2022/11/14 05:24:13;;;;;;;110.75;32.88;;;;;;;;;;4915139;29;20086;-72
2022/11/14 05:26:58;;;;;;;101.15;34.05;;;;;;;;;;4915626;29;20047;-73
2022/11/14 05:29:42;;;;;;;89.20;29.77;;;;;;;;;;4922228;29;20046;-73
2022/11/14 05:32:27;;;;;;;87.45;32.60;;;;;;;;;;4947137;29;20046;-73
2022/11/14 05:35:11;;;;;;;95.40;31.67;;;;;;;;;;4946045;29;20074;-73
2022/11/14 05:37:56;;;;;;;82.85;30.17;;;;;;;;;;4935467;29;20412;-73
2022/11/14 05:40:40;;;;;;;89.03;31.15;;;;;;;;;;4911443;29;20067;-72
2022/11/14 05:43:28;;;;;;;111.00;31.73;;;;;;;;;;4930563;29;20509;-72
2022/11/14 05:46:15;;;;;;;88.93;32.90;;;;;;;;;;4924332;29;20058;-73
2022/11/14 05:49:00;;;;;;;108.65;31.58;;;;;;;;;;4932633;29;20050;-72
2022/11/14 05:51:44;;;;;;;92.68;30.02;;;;;;;;;;4931102;29;20090;-73
2022/11/14 05:54:28;;;;;;;79.07;29.92;;;;;;;;;;4911895;29;20038;-74
2022/11/14 05:57:13;;;;;;;96.25;30.23;;;;;;;;;;4933755;29;20058;-72
2022/11/14 05:59:58;;;;;;;114.43;33.28;;;;;;;;;;4934096;29;20049;-72
2022/11/14 06:02:44;;;;;;;105.43;32.72;;;;;;;;;;4932438;29;20046;-72
2022/11/14 06:05:30;;;;;;;111.85;32.05;;;;;;;;;;4933375;29;20051;-72
2022/11/14 06:08:14;;;;;;;115.13;31.70;;;;;;;;;;4953325;29;20496;-73
2022/11/14 06:11:11;;;;;;;119.18;32.58;;;;;;;;;;4951148;29;20050;-73
2022/11/14 06:13:56;;;;;;;109.30;31.50;;;;;;;;;;4952707;29;20050;-74
2022/11/14 06:16:40;;;;;;;99.15;31.42;;;;;;;;;;4953072;29;20404;-74
2022/11/14 06:19:24;;;;;;;100.35;31.23;;;;;;;;;;4951271;29;20049;-72
2022/11/14 06:22:09;;;;;;;98.25;31.90;;;;;;;;;;4951498;29;20507;-72
2022/11/14 06:24:53;;;;;;;117.65;28.77;;;;;;;;;;4953717;29;20093;-72
2022/11/14 06:27:38;;;;;;;75.43;30.27;;;;;;;;;;4953829;29;20050;-72
2022/11/14 06:30:22;;;;;;;90.03;30.77;;;;;;;;;;4954014;29;20054;-73
2022/11/14 06:33:07;;;;;;;94.22;32.90;;;;;;;;;;4954345;29;20457;-73
2022/11/14 06:35:57;;;;;;;91.53;32.70;;;;;;;;;;4953690;29;20503;-74
2022/11/14 06:38:42;;;;;;;76.22;28.52;;;;;;;;;;4952919;28;20095;-72
2022/11/14 06:41:26;;;;;;;70.57;29.52;;;;;;;;;;4956649;28;20157;-73
2022/11/14 06:44:11;;;;;;;65.63;29.98;;;;;;;;;;4954514;28;20050;-73
2022/11/14 06:46:55;;;;;;;78.20;30.60;;;;;;;;;;4956841;28;20050;-73
2022/11/14 06:49:40;;;;;;;86.00;31.35;;;;;;;;;;4955711;29;20049;-73
2022/11/14 06:52:25;;;;;;;68.65;30.75;;;;;;;;;;4954202;29;20574;-72
2022/11/14 06:55:10;;;;;;;60.55;28.90;;;;;;;;;;4951570;29;20460;-72
2022/11/14 06:57:54;;;;;;;74.45;33.10;;;;;;;;;;4954769;29;20062;-74
2022/11/14 07:00:39;;;;;;;63.13;28.60;;;;;;;;;;4954590;29;20062;-73
2022/11/14 07:03:23;;;;;;;62.70;29.55;;;;;;;;;;4956070;29;20046;-73
2022/11/14 07:06:10;;;;;;;70.00;28.30;;;;;;;;;;4956066;29;20637;-72
2022/11/14 07:08:56;;;;;;;59.53;28.75;;;;;;;;;;4957299;28;20103;-72
2022/11/14 07:11:40;;;;;;;88.10;30.00;;;;;;;;;;4957893;29;20117;-73
2022/11/14 07:14:24;;;;;;;68.38;27.85;;;;;;;;;;4956115;29;20049;-73
2022/11/14 07:17:08;;;;;;;69.70;29.02;;;;;;;;;;4958027;29;20058;-75
2022/11/14 07:19:54;;;;;;;87.03;30.38;;;;;;;;;;4957800;29;20054;-72
2022/11/14 07:22:38;;;;;;;76.13;29.35;;;;;;;;;;4954026;28;20054;-73
2022/11/14 07:25:23;;;;;;;73.07;27.77;;;;;;;;;;4956892;28;20042;-72
2022/11/14 07:28:07;;;;;;;67.72;26.63;;;;;;;;;;4954118;29;20054;-73
2022/11/14 07:30:52;;;;;;;49.22;25.75;;;;;;;;;;4952561;28;20046;-75
2022/11/14 07:33:38;;;;;;;70.40;28.30;;;;;;;;;;4953655;29;20117;-73
2022/11/14 07:36:22;;;;;;;74.25;29.52;;;;;;;;;;4953297;28;20102;-73
2022/11/14 07:39:07;;;;;;;73.65;27.73;;;;;;;;;;4952850;29;20046;-73
2022/11/14 07:41:52;;;;;;;42.85;26.00;;;;;;;;;;4955869;29;20578;-73
2022/11/14 07:44:36;;;;;;;54.50;25.92;;;;;;;;;;4945458;28;20070;-73
2022/11/14 07:47:21;;;;;;;38.42;23.92;;;;;;;;;;4954354;28;20082;-73
2022/11/14 07:50:05;;;;;;;48.35;23.52;;;;;;;;;;4952578;28;20098;-72
2022/11/14 07:52:55;;;;;;;46.33;24.25;;;;;;;;;;4954910;28;20512;-71
2022/11/14 07:55:40;;;;;;;41.78;23.98;;;;;;;;;;4952142;28;20053;-72
2022/11/14 07:58:25;;;;;;;40.55;25.63;;;;;;;;;;4954916;29;20400;-73
2022/11/14 08:01:11;;;;;;;53.72;24.98;;;;;;;;;;4953317;29;20113;-72
2022/11/14 08:03:55;;;;;;;46.90;26.50;;;;;;;;;;4952745;29;20496;-72
2022/11/14 08:06:40;;;;;;;43.30;25.92;;;;;;;;;;4952290;28;20062;-72
2022/11/14 08:09:25;;;;;;;68.95;27.05;;;;;;;;;;4953899;29;20105;-72
2022/11/14 08:12:09;;;;;;;62.45;25.60;;;;;;;;;;4952853;29;20135;-73
2022/11/14 08:14:54;;;;;;;44.55;25.38;;;;;;;;;;4953463;28;20190;-72
2022/11/14 08:17:38;;;;;;;43.25;24.83;;;;;;;;;;4952101;29;20046;-72
2022/11/14 08:20:23;;;;;;;60.72;25.27;;;;;;;;;;4947487;29;20050;-71
2022/11/14 08:23:08;;;;;;;46.03;24.55;;;;;;;;;;4947241;29;20047;-72
2022/11/14 08:25:53;;;;;;;34.50;23.48;;;;;;;;;;4951415;29;20464;-72
2022/11/14 08:28:38;;;;;;;44.05;23.83;;;;;;;;;;4954848;29;20058;-72
2022/11/14 08:31:22;;;;;;;33.67;21.45;;;;;;;;;;4950911;29;20046;-71
2022/11/14 08:34:07;;;;;;;35.58;21.17;;;;;;;;;;4951766;29;20054;-71
2022/11/14 08:36:51;;;;;;;36.85;21.77;;;;;;;;;;4939674;29;20069;-72
2022/11/14 08:39:36;;;;;;;32.65;18.95;;;;;;;;;;4954514;29;20054;-71
2022/11/14 08:42:20;;;;;;;42.95;22.55;;;;;;;;;;4953757;29;20142;-71
2022/11/14 08:45:06;;;;;;;34.83;20.35;;;;;;;;;;4954706;28;20166;-72
2022/11/14 08:47:51;;;;;;;30.17;20.15;;;;;;;;;;4940832;28;20046;-71
2022/11/14 08:50:36;;;;;;;42.35;23.73;;;;;;;;;;4948682;29;20062;-72
2022/11/14 08:53:21;;;;;;;40.67;22.77;;;;;;;;;;4952909;29;20086;-72
2022/11/14 08:56:06;;;;;;;35.60;19.55;;;;;;;;;;4951750;29;20610;-72
2022/11/14 08:58:50;;;;;;;45.28;20.63;;;;;;;;;;4951230;28;20050;-73
2022/11/14 09:01:35;;;;;;;41.95;21.60;;;;;;;;;;4952530;28;20051;-73
2022/11/14 09:04:19;;;;;;;28.77;19.38;;;;;;;;;;4952526;29;20061;-73
2022/11/14 09:07:04;;;;;;;28.35;19.17;;;;;;;;;;4950015;28;20073;-73
2022/11/14 09:09:49;;;;;;;28.15;17.88;;;;;;;;;;4953573;29;20385;-73
2022/11/14 09:12:34;;;;;;;35.92;20.65;;;;;;;;;;4948685;29;20045;-73
2022/11/14 09:15:19;;;;;;;32.53;19.45;;;;;;;;;;4953638;29;20134;-73
2022/11/14 09:18:03;;;;;;;49.90;20.55;;;;;;;;;;4952131;29;20058;-74
2022/11/14 09:20:48;;;;;;;36.05;19.30;;;;;;;;;;4951387;28;20129;-73
2022/11/14 09:23:33;;;;;;;29.85;19.00;;;;;;;;;;4971784;28;20133;-73
2022/11/14 09:26:18;;;;;;;28.05;18.83;;;;;;;;;;4954824;28;20070;-73
2022/11/14 09:29:05;;;;;;;45.58;21.17;;;;;;;;;;4953094;29;20058;-73
2022/11/14 09:31:51;;;;;;;32.47;19.33;;;;;;;;;;4953684;29;20476;-73
2022/11/14 09:34:36;;;;;;;38.22;19.02;;;;;;;;;;4952423;29;20046;-73
2022/11/14 09:37:20;;;;;;;31.40;19.48;;;;;;;;;;4966094;28;20053;-72
2022/11/14 09:40:06;;;;;;;44.03;19.85;;;;;;;;;;4965853;28;20102;-72
2022/11/14 09:43:38;;;;;;;31.25;19.30;;;;;;;;;;4953431;29;20067;-70
2022/11/14 09:46:31;;;;;;;34.58;19.95;;;;;;;;;;4946163;28;20085;-71
2022/11/14 09:49:37;;;;;;;31.70;19.85;;;;;;;;;;4952960;29;20511;-71
2022/11/14 09:52:43;;;;;;;29.50;18.85;;;;;;;;;;4959630;28;20046;-72
2022/11/14 09:55:30;;;;;;;32.60;18.75;;;;;;;;;;4963386;28;20194;-74
2022/11/14 09:58:18;;;;;;;26.60;18.00;;;;;;;;;;4952570;29;20117;-72
2022/11/14 10:01:21;;;;;;;29.08;19.23;;;;;;;;;;4952625;29;20081;-71
2022/11/14 10:04:15;;;;;;;28.02;19.10;;;;;;;;;;4952524;29;20058;-72
2022/11/14 10:07:23;;;;;;;44.65;22.05;;;;;;;;;;4942673;29;20066;-72
2022/11/14 10:10:29;;;;;;;30.42;18.85;;;;;;;;;;4926335;29;20413;-71
2022/11/14 10:13:38;;;;;;;28.25;18.55;;;;;;;;;;4934346;29;20059;-72
2022/11/14 10:17:04;;;;;;;34.83;19.27;;;;;;;;;;4936997;29;20411;-72
2022/11/14 10:20:13;;;;;;;26.55;17.35;;;;;;;;;;4937154;29;20131;-72
2022/11/14 10:23:26;;;;;;;27.40;18.45;;;;;;;;;;4955692;29;20152;-71
2022/11/14 10:26:18;;;;;;;35.65;20.02;;;;;;;;;;4956386;29;20077;-71
2022/11/14 10:29:34;;;;;;;30.45;18.85;;;;;;;;;;4954839;29;20320;-71
2022/11/14 10:32:27;;;;;;;30.70;19.85;;;;;;;;;;4957444;29;20568;-71
2022/11/14 10:35:38;;;;;;;28.15;19.00;;;;;;;;;;4954090;29;20086;-71
2022/11/14 10:38:41;;;;;;;32.00;18.88;;;;;;;;;;4930304;29;20050;-72
2022/11/14 10:41:27;;;;;;;29.42;18.27;;;;;;;;;;4937542;29;20540;-71
2022/11/14 10:44:17;;;;;;;31.85;19.27;;;;;;;;;;4930670;29;20050;-71
2022/11/14 10:47:09;;;;;;;26.63;18.08;;;;;;;;;;4956931;29;20114;-71
2022/11/14 10:49:59;;;;;;;35.33;19.70;;;;;;;;;;4955947;29;20113;-71
2022/11/14 10:52:45;;;;;;;32.88;19.08;;;;;;;;;;4957667;29;20054;-71
2022/11/14 10:55:30;;;;;;;33.10;18.38;;;;;;;;;;4940665;29;21126;-73
2022/11/14 10:58:14;;;;;;;35.00;18.77;;;;;;;;;;4936487;29;20203;-74
2022/11/14 11:01:34;;;;;;;27.67;18.27;;;;;;;;;;4937249;29;20078;-72
2022/11/14 12:19:15;;;;;;;24.90;16.80;;;;;;;;;;4816252;28;20053;-74
2022/11/14 12:22:21;;;;;;;25.25;16.25;;;;;;;;;;4993237;28;20056;-72
2022/11/14 12:25:34;;;;;;;30.80;18.88;;;;;;;;;;5023856;28;20080;-73
2022/11/14 12:28:34;;;;;;;27.90;17.98;;;;;;;;;;4994320;28;20097;-74
2022/11/14 12:31:18;;;;;;;27.50;18.10;;;;;;;;;;5012963;28;20119;-73
2022/11/14 12:34:26;;;;;;;30.63;17.50;;;;;;;;;;5012682;28;20056;-74
2022/11/14 12:37:22;;;;;;;34.53;18.48;;;;;;;;;;5012613;28;20080;-73
2022/11/14 12:40:28;;;;;;;42.72;20.70;;;;;;;;;;5012089;28;20048;-73
2022/11/14 12:43:43;;;;;;;30.65;17.02;;;;;;;;;;5012367;28;20104;-73
2022/11/14 12:46:47;;;;;;;33.78;19.55;;;;;;;;;;5012394;28;20125;-72
2022/11/14 12:49:46;;;;;;;35.00;19.15;;;;;;;;;;5002971;28;20053;-73
2022/11/14 12:52:42;;;;;;;34.08;21.02;;;;;;;;;;4999258;28;20108;-73
2022/11/14 12:55:29;;;;;;;31.95;21.08;;;;;;;;;;5008383;28;20064;-72
2022/11/14 12:58:35;;;;;;;29.50;19.30;;;;;;;;;;5011625;28;20060;-73
2022/11/14 13:01:25;;;;;;;28.65;18.50;;;;;;;;;;5010057;28;20076;-74
2022/11/14 13:04:42;;;;;;;27.98;18.92;;;;;;;;;;5009141;28;20407;-72
2022/11/14 13:08:06;;;;;;;24.17;17.42;;;;;;;;;;5009598;28;20725;-75
2022/11/14 13:10:50;;;;;;;35.85;20.85;;;;;;;;;;5009965;28;20108;-73
2022/11/14 13:23:42;;;;;;;26.67;16.75;;;;;;;;;;4965479;28;20606;-73
2022/11/14 13:26:26;;;;;;;29.70;17.75;;;;;;;;;;4971845;28;20076;-74
2022/11/14 13:29:40;;;;;;;36.22;20.67;;;;;;;;;;4971361;28;20053;-74
2022/11/14 13:32:39;;;;;;;25.42;18.45;;;;;;;;;;4967478;28;20046;-74
2022/11/14 13:35:30;;;;;;;47.88;20.77;;;;;;;;;;4970924;28;20100;-72
2022/11/14 13:38:37;;;;;;;34.03;19.30;;;;;;;;;;4973537;28;20105;-74
2022/11/14 13:41:46;;;;;;;57.58;21.38;;;;;;;;;;4971662;28;20045;-73
2022/11/14 13:44:46;;;;;;;44.20;20.15;;;;;;;;;;4972426;28;20057;-75
2022/11/14 13:47:55;;;;;;;53.20;21.75;;;;;;;;;;4971206;28;20060;-74
2022/11/14 13:50:41;;;;;;;55.53;21.33;;;;;;;;;;4971028;28;20049;-74
2022/11/14 13:53:30;;;;;;;32.85;18.75;;;;;;;;;;4972293;28;20058;-72
2022/11/14 13:56:35;;;;;;;27.98;16.90;;;;;;;;;;4972488;28;20073;-70
2022/11/14 13:59:33;;;;;;;65.88;22.08;;;;;;;;;;4971766;28;20053;-72
2022/11/14 14:02:52;;;;;;;39.72;21.30;;;;;;;;;;4969796;28;20070;-72
2022/11/14 14:06:02;;;;;;;40.08;20.88;;;;;;;;;;4969038;28;20416;-72
2022/11/14 14:08:53;;;;;;;40.97;19.40;;;;;;;;;;4968542;28;20057;-72
2022/11/14 14:11:59;;;;;;;38.50;19.33;;;;;;;;;;4973807;28;20098;-73
2022/11/14 14:15:14;;;;;;;24.52;17.05;;;;;;;;;;4971898;28;20408;-75
2022/11/14 14:18:13;;;;;;;32.72;19.30;;;;;;;;;;4980253;28;20774;-73
2022/11/14 14:21:09;;;;;;;33.28;19.25;;;;;;;;;;5010318;28;20410;-74
2022/11/14 14:24:26;;;;;;;37.03;19.77;;;;;;;;;;5012261;28;20419;-72
2022/11/14 14:27:35;;;;;;;43.40;19.58;;;;;;;;;;5011221;28;20044;-74
2022/11/14 14:30:20;;;;;;;29.77;18.27;;;;;;;;;;5010972;28;20124;-72
2022/11/14 14:33:12;;;;;;;43.45;21.05;;;;;;;;;;4998375;28;20068;-73
2022/11/14 14:35:56;;;;;;;30.27;18.98;;;;;;;;;;5011465;28;20394;-72
2022/11/14 14:38:41;;;;;;;44.13;20.65;;;;;;;;;;5011299;28;20411;-71
2022/11/14 14:41:30;;;;;;;41.50;20.23;;;;;;;;;;5011029;28;20045;-72
2022/11/14 14:44:23;;;;;;;44.17;19.80;;;;;;;;;;5010401;28;20072;-72
2022/11/14 14:47:39;;;;;;;38.28;19.48;;;;;;;;;;5010037;28;20072;-72
2022/11/14 14:50:27;;;;;;;46.42;20.85;;;;;;;;;;5012278;28;20461;-71
2022/11/14 14:53:24;;;;;;;50.08;22.42;;;;;;;;;;5009386;28;20076;-72
2022/11/14 14:56:20;;;;;;;39.60;21.20;;;;;;;;;;5009468;28;20118;-72
2022/11/14 14:59:19;;;;;;;32.65;21.15;;;;;;;;;;5013110;28;20402;-72
2022/11/14 15:02:14;;;;;;;42.78;20.20;;;;;;;;;;5013650;28;20108;-71
2022/11/14 15:05:00;;;;;;;34.22;20.50;;;;;;;;;;5012593;28;20131;-72
2022/11/14 15:07:45;;;;;;;32.60;21.20;;;;;;;;;;5012496;28;20049;-72
2022/11/14 15:10:31;;;;;;;33.78;21.02;;;;;;;;;;5014359;28;20119;-72
2022/11/14 15:13:17;;;;;;;46.28;22.33;;;;;;;;;;5013231;28;20108;-73
2022/11/14 15:16:04;;;;;;;66.78;23.90;;;;;;;;;;5014880;28;20402;-72
2022/11/14 15:18:51;;;;;;;52.70;24.33;;;;;;;;;;5013609;28;20160;-73
2022/11/14 15:21:35;;;;;;;53.25;23.30;;;;;;;;;;5011381;28;20052;-72
2022/11/14 15:24:22;;;;;;;38.03;22.92;;;;;;;;;;5009640;28;20057;-73
2022/11/14 15:27:19;;;;;;;42.28;21.65;;;;;;;;;;5009329;28;20411;-75
2022/11/14 15:30:06;;;;;;;56.53;25.52;;;;;;;;;;5013022;28;20056;-74
2022/11/14 15:32:56;;;;;;;64.28;26.55;;;;;;;;;;5012053;28;20099;-72
2022/11/14 15:35:41;;;;;;;57.70;25.27;;;;;;;;;;5001462;28;20099;-72
2022/11/14 15:38:26;;;;;;;64.70;24.02;;;;;;;;;;5009062;28;20454;-72
2022/11/14 15:41:22;;;;;;;60.83;23.65;;;;;;;;;;5011609;28;20053;-72
2022/11/14 15:44:27;;;;;;;59.40;23.67;;;;;;;;;;4999612;28;20522;-72
2022/11/14 15:47:35;;;;;;;63.45;24.83;;;;;;;;;;5004112;28;20068;-72
2022/11/14 15:50:29;;;;;;;72.70;26.00;;;;;;;;;;5012186;28;20057;-73
2022/11/14 15:53:16;;;;;;;73.90;26.37;;;;;;;;;;5009390;28;20044;-75
2022/11/14 15:56:01;;;;;;;66.65;28.50;;;;;;;;;;5008979;28;20044;-75
2022/11/14 15:58:46;;;;;;;70.70;30.42;;;;;;;;;;5010514;28;20072;-74
2022/11/14 16:01:31;;;;;;;61.50;27.48;;;;;;;;;;5008270;28;20100;-71
2022/11/14 16:04:18;;;;;;;77.35;27.55;;;;;;;;;;5003005;28;20184;-73
2022/11/14 16:07:04;;;;;;;61.63;25.02;;;;;;;;;;5006735;28;20049;-73
2022/11/14 16:09:48;;;;;;;69.78;28.35;;;;;;;;;;5010557;28;20053;-73
2022/11/14 16:12:32;;;;;;;82.75;28.40;;;;;;;;;;5003703;28;20112;-73
2022/11/14 16:15:19;;;;;;;71.88;27.92;;;;;;;;;;5001041;28;20509;-74
2022/11/14 16:18:04;;;;;;;55.50;26.00;;;;;;;;;;4996912;28;20113;-73
2022/11/14 16:20:50;;;;;;;71.55;28.48;;;;;;;;;;4979952;28;20097;-72
2022/11/14 16:23:34;;;;;;;61.20;27.00;;;;;;;;;;4978223;28;20116;-73
2022/11/14 16:26:19;;;;;;;66.70;29.65;;;;;;;;;;4980193;28;20420;-72
2022/11/14 16:29:04;;;;;;;54.53;28.15;;;;;;;;;;4980562;28;20139;-72
2022/11/14 16:31:50;;;;;;;53.97;26.90;;;;;;;;;;4984224;28;20077;-72
2022/11/14 16:34:36;;;;;;;83.07;29.67;;;;;;;;;;4983906;28;20053;-73
2022/11/14 16:37:20;;;;;;;56.30;27.30;;;;;;;;;;4985080;28;20057;-73
2022/11/14 16:40:06;;;;;;;82.60;32.65;;;;;;;;;;4999913;28;20877;-72
2022/11/14 16:42:57;;;;;;;67.47;29.83;;;;;;;;;;4986737;28;20053;-73
2022/11/14 16:45:41;;;;;;;79.82;30.80;;;;;;;;;;4999117;28;20450;-74
2022/11/14 16:48:26;;;;;;;72.07;32.50;;;;;;;;;;4986953;28;20108;-72
2022/11/14 16:51:11;;;;;;;64.25;31.05;;;;;;;;;;4988203;28;20150;-72
2022/11/14 16:53:55;;;;;;;73.30;33.97;;;;;;;;;;4995607;28;20129;-75
2022/11/14 16:56:40;;;;;;;87.28;37.65;;;;;;;;;;4994294;28;20056;-71
2022/11/14 16:59:24;;;;;;;74.47;34.88;;;;;;;;;;4992080;28;20052;-74
2022/11/14 17:02:16;;;;;;;60.63;33.67;;;;;;;;;;4984031;28;20412;-72
2022/11/14 17:05:01;;;;;;;70.18;34.22;;;;;;;;;;4992488;28;20684;-73
2022/11/14 17:07:45;;;;;;;61.22;30.90;;;;;;;;;;5000832;28;20073;-72
2022/11/14 17:10:30;;;;;;;54.75;29.50;;;;;;;;;;5010893;28;21862;-73
2022/11/14 17:13:18;;;;;;;49.50;29.35;;;;;;;;;;5010114;28;20520;-72
2022/11/14 17:16:03;;;;;;;55.25;28.33;;;;;;;;;;5005995;28;20045;-74
2022/11/14 17:18:55;;;;;;;56.67;28.95;;;;;;;;;;4977182;28;20072;-74
2022/11/14 17:21:40;;;;;;;66.60;30.05;;;;;;;;;;5011690;28;20519;-75
2022/11/14 17:24:24;;;;;;;74.78;33.35;;;;;;;;;;5008937;28;20105;-74
2022/11/14 17:27:11;;;;;;;65.45;32.35;;;;;;;;;;4999120;28;20410;-73
2022/11/14 17:29:56;;;;;;;59.22;32.30;;;;;;;;;;4999602;28;20129;-73
2022/11/14 17:32:40;;;;;;;59.90;36.92;;;;;;;;;;5006044;28;20132;-72
2022/11/14 17:35:25;;;;;;;71.38;36.97;;;;;;;;;;5006879;28;20141;-73
2022/11/14 17:38:10;;;;;;;80.10;41.53;;;;;;;;;;5001594;28;20522;-72
2022/11/14 17:40:57;;;;;;;80.80;46.90;;;;;;;;;;5007709;28;20137;-74
2022/11/14 17:43:42;;;;;;;68.50;41.03;;;;;;;;;;5007513;28;20099;-72
2022/11/14 17:46:27;;;;;;;70.63;40.22;;;;;;;;;;5007839;28;20045;-73